Time;durP1;ratioP1;P1;durP2;ratioP2;P2;SDS_P1;SDS_P2;PMS_P1;PMS_P2;Temp;Humidity;BMP_temperature;BMP_pressure;BME280_temperature;BME280_humidity;BME280_pressure;Samples;Min_cycle;Max_cycle;Signal;HPM_P1;HPM_P2
2021/09/22 00:00:55;;;;;;;22.67;12.85;;;;;;;12.20;100.00;101712.34;5064944;28;20079;-79
2021/09/22 00:03:23;;;;;;;23.70;14.23;;;;;;;12.11;100.00;101705.72;5053678;28;20104;-79
2021/09/22 00:05:51;;;;;;;27.65;13.15;;;;;;;12.15;100.00;101709.94;5078672;28;20526;-79
2021/09/22 00:08:18;;;;;;;27.83;13.70;;;;;;;12.15;100.00;101713.41;5083842;28;20188;-78
2021/09/22 00:10:45;;;;;;;22.13;12.75;;;;;;;12.19;100.00;101713.28;5068818;28;20052;-78
2021/09/22 00:13:12;;;;;;;25.90;13.50;;;;;;;12.14;100.00;101719.63;5085948;28;20164;-77
2021/09/22 00:15:40;;;;;;;32.22;14.15;;;;;;;12.15;100.00;101721.34;5067814;28;20044;-79
2021/09/22 00:18:07;;;;;;;22.27;14.07;;;;;;;12.24;100.00;101714.75;5107160;28;20130;-78
2021/09/22 00:20:34;;;;;;;26.75;13.73;;;;;;;12.18;100.00;101714.22;5066350;28;20086;-78
2021/09/22 00:23:02;;;;;;;29.63;14.13;;;;;;;12.11;100.00;101714.53;5088285;28;20120;-78
2021/09/22 00:25:36;;;;;;;25.02;12.60;;;;;;;12.03;100.00;101711.41;5079669;28;20109;-78
2021/09/22 00:28:05;;;;;;;25.45;13.65;;;;;;;12.09;100.00;101708.44;5105202;27;20464;-79
2021/09/22 00:30:32;;;;;;;23.05;12.77;;;;;;;12.07;100.00;101710.31;5056829;28;20086;-79
2021/09/22 00:33:00;;;;;;;28.88;11.90;;;;;;;12.16;100.00;101699.31;5071282;28;20071;-80
2021/09/22 00:35:27;;;;;;;30.17;13.30;;;;;;;11.98;100.00;101707.25;5080765;28;20407;-80
2021/09/22 00:38:01;;;;;;;33.63;14.30;;;;;;;11.98;100.00;101702.84;5087321;28;20585;-79
2021/09/22 00:40:31;;;;;;;27.65;12.60;;;;;;;11.96;100.00;101711.75;5052940;28;20044;-79
2021/09/22 00:42:58;;;;;;;35.75;13.73;;;;;;;11.95;100.00;101707.41;5066453;28;20122;-79
2021/09/22 00:45:25;;;;;;;35.08;13.55;;;;;;;11.92;100.00;101703.13;5061486;28;20495;-80
2021/09/22 00:47:52;;;;;;;26.08;13.13;;;;;;;11.81;100.00;101702.75;5095754;27;20058;-78
2021/09/22 00:50:19;;;;;;;29.65;13.00;;;;;;;11.75;100.00;101700.38;5104592;27;20138;-80
2021/09/22 00:52:47;;;;;;;34.67;14.43;;;;;;;11.75;100.00;101695.09;5066379;28;20104;-78
2021/09/22 00:55:14;;;;;;;38.35;15.25;;;;;;;11.75;100.00;101703.91;5082169;28;20048;-78
2021/09/22 00:57:49;;;;;;;33.83;15.93;;;;;;;11.76;100.00;101707.38;5088547;27;20582;-78
2021/09/22 01:00:18;;;;;;;46.55;16.48;;;;;;;11.65;100.00;101700.81;5094650;28;20059;-78
2021/09/22 01:02:49;;;;;;;39.47;15.52;;;;;;;11.66;100.00;101699.91;5065561;27;20502;-77
2021/09/22 01:05:18;;;;;;;40.20;14.02;;;;;;;11.71;100.00;101694.41;5071127;28;20052;-79
2021/09/22 01:07:46;;;;;;;44.58;15.85;;;;;;;11.71;100.00;101706.72;5085902;28;20275;-78
2021/09/22 01:10:13;;;;;;;38.60;15.55;;;;;;;11.66;100.00;101696.38;5072661;28;20084;-78
2021/09/22 01:12:41;;;;;;;35.58;14.23;;;;;;;11.64;100.00;101699.09;5096557;28;20410;-78
2021/09/22 01:15:09;;;;;;;36.72;13.75;;;;;;;11.73;100.00;101689.06;5070941;28;20067;-77
2021/09/22 01:17:36;;;;;;;41.30;15.25;;;;;;;11.74;100.00;101701.31;5076911;27;20143;-79
2021/09/22 01:20:06;;;;;;;33.65;14.50;;;;;;;11.81;100.00;101702.75;5079680;28;20056;-79
2021/09/22 01:22:33;;;;;;;35.15;13.27;;;;;;;11.71;100.00;101698.81;5070844;28;20047;-78
2021/09/22 01:25:01;;;;;;;40.92;14.77;;;;;;;11.73;100.00;101705.72;5046720;28;20048;-78
2021/09/22 01:27:28;;;;;;;32.08;14.05;;;;;;;11.72;100.00;101705.81;5087689;28;20138;-77
2021/09/22 01:29:55;;;;;;;32.25;13.40;;;;;;;11.74;100.00;101711.88;5095420;28;20726;-78
2021/09/22 01:32:23;;;;;;;33.15;12.95;;;;;;;11.91;100.00;101704.91;5083066;28;20044;-78
2021/09/22 01:34:50;;;;;;;36.58;13.02;;;;;;;11.86;100.00;101714.81;5094626;28;20135;-77
2021/09/22 01:37:17;;;;;;;36.35;12.85;;;;;;;11.99;100.00;101712.47;5103753;27;20114;-78
2021/09/22 01:39:46;;;;;;;41.25;14.70;;;;;;;12.01;100.00;101717.66;5092968;27;20075;-79
2021/09/22 01:42:13;;;;;;;32.90;13.13;;;;;;;12.01;100.00;101720.31;5106632;27;20736;-78
2021/09/22 01:44:40;;;;;;;42.75;13.13;;;;;;;12.02;100.00;101717.59;5070747;28;20163;-77
2021/09/22 01:47:08;;;;;;;32.05;10.73;;;;;;;12.07;100.00;101717.38;5105183;27;20091;-79
2021/09/22 01:49:37;;;;;;;24.48;10.20;;;;;;;12.09;100.00;101716.38;5080759;28;21466;-78
2021/09/22 01:52:04;;;;;;;45.83;12.30;;;;;;;12.19;100.00;101718.56;5084680;28;20147;-79
2021/09/22 01:54:31;;;;;;;32.38;11.88;;;;;;;12.09;100.00;101720.78;5081199;28;20086;-78
2021/09/22 01:56:59;;;;;;;33.03;10.63;;;;;;;12.05;100.00;101722.72;5043113;28;20138;-78
2021/09/22 01:59:27;;;;;;;33.00;11.23;;;;;;;12.19;100.00;101716.78;5041973;28;20136;-79
2021/09/22 02:01:54;;;;;;;36.33;10.07;;;;;;;12.15;100.00;101709.94;5086767;28;20081;-78
2021/09/22 02:04:21;;;;;;;27.10;10.43;;;;;;;12.15;100.00;101707.28;5061607;28;20052;-78
2021/09/22 02:06:49;;;;;;;29.33;9.60;;;;;;;11.98;100.00;101710.75;5065291;27;20270;-79
2021/09/22 02:09:16;;;;;;;33.35;10.05;;;;;;;12.00;100.00;101708.88;5097386;28;20052;-79
2021/09/22 02:11:43;;;;;;;30.95;9.30;;;;;;;11.88;100.00;101701.53;5097631;28;20488;-78
2021/09/22 02:14:11;;;;;;;38.63;8.30;;;;;;;11.95;100.00;101712.69;5096123;28;20126;-78
2021/09/22 02:16:38;;;;;;;34.30;9.00;;;;;;;11.97;100.00;101709.03;5096475;27;20079;-79
2021/09/22 02:19:05;;;;;;;35.88;8.23;;;;;;;11.87;100.00;101708.59;5092874;28;20259;-78
2021/09/22 02:21:33;;;;;;;41.85;9.57;;;;;;;11.81;100.00;101705.38;5064581;28;20474;-78
2021/09/22 02:24:00;;;;;;;36.30;9.20;;;;;;;11.82;100.00;101701.81;5099541;27;20055;-79
2021/09/22 02:26:27;;;;;;;25.15;7.55;;;;;;;11.80;100.00;101709.81;5069316;28;21789;-79
2021/09/22 02:28:55;;;;;;;33.65;8.15;;;;;;;11.75;100.00;101711.81;5098537;27;20265;-77
2021/09/22 02:31:22;;;;;;;34.20;8.70;;;;;;;11.71;100.00;101712.00;5080252;28;20159;-78
2021/09/22 02:33:49;;;;;;;40.70;8.40;;;;;;;11.73;100.00;101707.53;5079732;28;20046;-79
2021/09/22 02:36:17;;;;;;;30.10;7.75;;;;;;;11.80;100.00;101714.25;5097188;28;20151;-80
2021/09/22 02:38:44;;;;;;;35.97;8.98;;;;;;;11.69;100.00;101706.78;5079325;27;20100;-79
2021/09/22 02:41:11;;;;;;;33.20;8.35;;;;;;;11.57;100.00;101708.25;5079317;28;20066;-78
2021/09/22 02:43:38;;;;;;;33.80;8.18;;;;;;;11.45;100.00;101698.25;5077620;28;20398;-80
2021/09/22 02:46:06;;;;;;;31.17;7.88;;;;;;;11.43;100.00;101707.97;5053867;28;20082;-78
2021/09/22 02:48:33;;;;;;;37.42;8.80;;;;;;;11.35;100.00;101713.63;5062530;28;20063;-78
2021/09/22 02:51:00;;;;;;;35.83;8.48;;;;;;;11.35;100.00;101707.50;5058151;27;20054;-79
2021/09/22 02:53:30;;;;;;;39.80;9.32;;;;;;;11.39;100.00;101698.50;5080280;28;20111;-79
2021/09/22 02:55:57;;;;;;;36.45;8.55;;;;;;;11.39;100.00;101716.94;5081218;28;20070;-81
2021/09/22 02:58:24;;;;;;;32.17;7.72;;;;;;;11.36;100.00;101711.84;5083695;28;20082;-78
2021/09/22 03:00:52;;;;;;;40.38;8.05;;;;;;;11.38;100.00;101704.69;5081052;28;20203;-79
2021/09/22 03:03:19;;;;;;;43.25;8.43;;;;;;;11.39;100.00;101716.94;5100851;28;20107;-80
2021/09/22 03:05:47;;;;;;;41.95;9.18;;;;;;;11.38;100.00;101704.69;5088930;28;20114;-77
2021/09/22 03:08:14;;;;;;;37.28;7.95;;;;;;;11.25;100.00;101708.81;5081851;28;20480;-78
2021/09/22 03:10:41;;;;;;;39.20;8.35;;;;;;;11.21;100.00;101712.50;5065102;28;20085;-79
2021/09/22 03:13:08;;;;;;;47.13;8.90;;;;;;;11.25;100.00;101714.09;5062433;28;20039;-80
2021/09/22 03:15:36;;;;;;;38.13;10.73;;;;;;;11.23;100.00;101715.94;5083578;28;20083;-79
2021/09/22 03:18:03;;;;;;;43.28;7.88;;;;;;;11.09;100.00;101716.56;5080906;28;20120;-79
2021/09/22 03:20:30;;;;;;;37.22;8.93;;;;;;;11.09;100.00;101713.91;5060591;28;20051;-78
2021/09/22 03:22:57;;;;;;;39.40;8.85;;;;;;;11.15;100.00;101719.75;5082360;28;20075;-78
2021/09/22 03:25:25;;;;;;;32.65;8.95;;;;;;;11.09;100.00;101722.69;5054874;28;20131;-80
2021/09/22 03:27:52;;;;;;;33.47;8.43;;;;;;;11.05;100.00;101726.38;5070626;28;20123;-79
2021/09/22 03:30:19;;;;;;;39.83;8.45;;;;;;;11.00;100.00;101733.63;5095777;28;20156;-78
2021/09/22 03:32:46;;;;;;;39.80;8.40;;;;;;;10.94;100.00;101735.63;5074741;28;20052;-78
2021/09/22 03:35:13;;;;;;;45.90;9.93;;;;;;;10.85;100.00;101737.78;5045549;28;20129;-78
2021/09/22 03:37:41;;;;;;;33.88;7.88;;;;;;;10.93;100.00;101736.56;5084439;28;20268;-78
2021/09/22 03:40:09;;;;;;;33.70;8.73;;;;;;;10.86;100.00;101741.25;5072667;28;20043;-79
2021/09/22 03:42:36;;;;;;;40.55;8.30;;;;;;;10.84;100.00;101748.34;5087732;28;20067;-78
2021/09/22 03:45:03;;;;;;;44.55;8.68;;;;;;;10.76;100.00;101753.06;5102371;27;20649;-77
2021/09/22 03:47:32;;;;;;;43.72;8.27;;;;;;;10.73;100.00;101754.06;5087387;27;20524;-79
2021/09/22 03:49:59;;;;;;;41.97;8.60;;;;;;;10.72;100.00;101762.06;5063622;28;20115;-80
2021/09/22 03:52:26;;;;;;;39.83;7.32;;;;;;;10.76;100.00;101759.22;5086251;28;20139;-80
2021/09/22 03:54:53;;;;;;;42.67;8.90;;;;;;;10.78;100.00;101760.00;5100660;27;20150;-78
2021/09/22 03:57:20;;;;;;;38.30;8.95;;;;;;;10.76;100.00;101760.97;5103214;27;20105;-77
2021/09/22 03:59:48;;;;;;;47.30;9.65;;;;;;;10.79;100.00;101755.59;5084120;27;20432;-78
2021/09/22 04:02:16;;;;;;;40.08;7.78;;;;;;;10.68;100.00;101752.56;5101744;27;20467;-77
2021/09/22 04:04:43;;;;;;;45.42;7.80;;;;;;;10.71;100.00;101744.50;5076325;28;20084;-78
2021/09/22 04:07:13;;;;;;;43.35;8.65;;;;;;;10.76;100.00;101750.44;5078253;28;20341;-80
2021/09/22 04:09:41;;;;;;;37.17;7.80;;;;;;;10.74;100.00;101753.16;5081189;28;20428;-78
2021/09/22 04:12:08;;;;;;;36.10;8.73;;;;;;;10.71;100.00;101766.44;5072106;28;20534;-77
2021/09/22 04:14:35;;;;;;;37.35;7.95;;;;;;;10.81;100.00;101762.53;5061158;28;20435;-80
2021/09/22 04:17:02;;;;;;;40.42;8.00;;;;;;;10.81;100.00;101765.16;5093915;27;20592;-79
2021/09/22 04:19:30;;;;;;;37.42;7.50;;;;;;;10.96;100.00;101768.06;5097149;28;20419;-79
2021/09/22 04:21:57;;;;;;;31.27;8.75;;;;;;;11.03;100.00;101764.22;5067897;28;20638;-78
2021/09/22 04:24:24;;;;;;;37.70;7.75;;;;;;;11.07;100.00;101771.94;5076598;28;20117;-76
2021/09/22 04:26:52;;;;;;;42.97;10.02;;;;;;;11.05;100.00;101772.94;5086919;28;20120;-79
2021/09/22 04:29:19;;;;;;;36.17;8.10;;;;;;;10.99;100.00;101771.44;5064403;28;20123;-78
2021/09/22 04:31:46;;;;;;;45.00;8.32;;;;;;;11.05;100.00;101770.31;5062554;27;20093;-82
2021/09/22 04:34:14;;;;;;;43.75;9.35;;;;;;;11.04;100.00;101776.50;5085703;28;20101;-81
2021/09/22 04:36:42;;;;;;;32.78;8.25;;;;;;;11.13;100.00;101782.22;5088815;28;20131;-80
2021/09/22 04:39:10;;;;;;;31.27;8.02;;;;;;;11.21;100.00;101773.97;5076388;28;20055;-80
2021/09/22 04:41:37;;;;;;;46.95;9.07;;;;;;;11.22;100.00;101782.78;5085492;28;20149;-83
2021/09/22 04:44:04;;;;;;;42.63;7.75;;;;;;;11.25;100.00;101782.63;5081589;28;20083;-81
2021/09/22 04:46:32;;;;;;;36.05;6.93;;;;;;;11.23;100.00;101787.13;5060472;28;20124;-84
2021/09/22 04:48:59;;;;;;;41.75;7.22;;;;;;;11.27;100.00;101776.38;5088759;28;20087;-81
2021/09/22 04:51:26;;;;;;;34.22;7.60;;;;;;;11.34;100.00;101782.22;5083950;28;20537;-78
2021/09/22 04:53:54;;;;;;;37.97;7.82;;;;;;;11.22;100.00;101785.41;5081379;28;20065;-81
2021/09/22 04:56:21;;;;;;;38.22;7.93;;;;;;;11.25;100.00;101795.78;5073555;28;20067;-81
2021/09/22 04:58:48;;;;;;;31.75;7.15;;;;;;;11.22;100.00;101798.59;5078504;28;20100;-78
2021/09/22 05:01:17;;;;;;;42.15;8.15;;;;;;;11.12;100.00;101804.25;5079678;28;20052;-80
2021/09/22 05:03:46;;;;;;;38.55;7.32;;;;;;;11.28;100.00;101804.44;5083273;28;20080;-77
2021/09/22 05:06:13;;;;;;;37.47;6.80;;;;;;;11.33;100.00;101796.31;5068843;28;20079;-78
2021/09/22 05:08:41;;;;;;;41.25;8.18;;;;;;;11.30;100.00;101807.88;5057549;28;20067;-80
2021/09/22 05:11:09;;;;;;;41.63;7.72;;;;;;;11.27;100.00;101802.72;5108752;27;20434;-81
2021/09/22 05:13:37;;;;;;;36.38;6.80;;;;;;;11.42;100.00;101809.09;5108467;27;20122;-77
2021/09/22 05:16:05;;;;;;;45.97;6.40;;;;;;;11.53;100.00;101806.03;5064914;28;20212;-78
2021/09/22 05:18:32;;;;;;;36.88;8.05;;;;;;;11.63;100.00;101812.59;5076624;28;20074;-79
2021/09/22 05:20:59;;;;;;;38.58;7.43;;;;;;;11.52;100.00;101815.69;5080123;28;20135;-79
2021/09/22 05:23:27;;;;;;;37.40;7.22;;;;;;;11.49;100.00;101818.47;5059392;28;20050;-81
2021/09/22 05:25:54;;;;;;;41.95;7.72;;;;;;;11.36;100.00;101825.22;5064742;28;20120;-80
2021/09/22 05:28:22;;;;;;;36.15;7.32;;;;;;;11.61;100.00;101825.84;5080751;28;20465;-79
2021/09/22 05:30:49;;;;;;;45.78;8.68;;;;;;;11.41;100.00;101828.50;5039959;28;20134;-79
2021/09/22 05:33:16;;;;;;;40.05;8.25;;;;;;;11.45;100.00;101832.72;5073715;28;20079;-80
2021/09/22 05:35:47;;;;;;;32.47;7.95;;;;;;;11.57;100.00;101824.28;5061157;28;20059;-80
2021/09/22 05:38:14;;;;;;;32.85;6.88;;;;;;;11.64;100.00;101832.75;5083289;28;20047;-79
2021/09/22 05:40:41;;;;;;;38.08;8.57;;;;;;;11.69;100.00;101828.13;5075413;28;20093;-80
2021/09/22 05:43:09;;;;;;;34.25;7.72;;;;;;;11.45;100.00;101830.09;5080952;28;20094;-79
2021/09/22 05:45:36;;;;;;;40.58;6.55;;;;;;;11.63;100.00;101824.00;5094784;27;20127;-78
2021/09/22 05:48:04;;;;;;;31.50;7.68;;;;;;;11.60;100.00;101837.31;5079859;28;20409;-80
2021/09/22 05:50:32;;;;;;;40.17;8.02;;;;;;;11.53;100.00;101841.16;5086666;28;20052;-79
2021/09/22 05:52:59;;;;;;;33.58;7.97;;;;;;;11.75;100.00;101830.53;5099375;28;20067;-79
2021/09/22 05:55:26;;;;;;;41.33;9.00;;;;;;;11.66;100.00;101833.53;5070391;28;20036;-79
2021/09/22 05:57:54;;;;;;;53.28;9.02;;;;;;;11.71;100.00;101830.69;5107189;27;20438;-79
2021/09/22 06:00:21;;;;;;;37.97;9.55;;;;;;;11.75;100.00;101829.63;5087553;28;20070;-78
2021/09/22 06:02:48;;;;;;;32.53;7.63;;;;;;;11.74;100.00;101838.50;5086471;28;20075;-80
2021/09/22 06:05:16;;;;;;;30.52;7.00;;;;;;;11.84;100.00;101839.81;5098907;27;20048;-81
2021/09/22 06:07:43;;;;;;;35.45;7.10;;;;;;;11.77;100.00;101838.38;5075198;28;20138;-81
2021/09/22 06:10:12;;;;;;;33.88;7.68;;;;;;;11.70;100.00;101837.75;5102711;27;20483;-79
2021/09/22 06:12:39;;;;;;;33.10;8.30;;;;;;;12.00;100.00;101835.56;5071204;28;20094;-78
2021/09/22 06:15:07;;;;;;;32.55;8.00;;;;;;;12.14;100.00;101827.88;5069650;28;20059;-77
2021/09/22 06:17:34;;;;;;;38.65;7.93;;;;;;;11.87;100.00;101834.41;5086230;28;20089;-79
2021/09/22 06:20:02;;;;;;;34.05;6.88;;;;;;;12.00;100.00;101840.00;5102855;27;20082;-80
2021/09/22 06:22:31;;;;;;;35.20;8.43;;;;;;;12.30;100.00;101830.66;5103423;27;20119;-78
2021/09/22 06:24:58;;;;;;;40.08;7.68;;;;;;;12.08;100.00;101846.63;5078457;28;20079;-81
2021/09/22 06:27:26;;;;;;;43.15;8.13;;;;;;;12.24;100.00;101841.50;5072632;28;20054;-82
2021/09/22 06:29:53;;;;;;;41.42;8.65;;;;;;;12.02;100.00;101851.31;5041586;28;20514;-81
2021/09/22 06:32:21;;;;;;;40.45;8.05;;;;;;;12.23;100.00;101854.78;5090316;28;20399;-80
2021/09/22 06:34:49;;;;;;;34.22;9.40;;;;;;;12.27;100.00;101853.72;5062974;28;20071;-81
2021/09/22 06:37:16;;;;;;;41.30;8.60;;;;;;;12.23;100.00;101866.19;5070709;28;20047;-81
2021/09/22 06:39:43;;;;;;;32.13;7.25;;;;;;;12.32;100.00;101857.84;5083201;28;20079;-82
2021/09/22 06:42:12;;;;;;;36.90;8.00;;;;;;;12.35;100.00;101854.22;5099659;28;20075;-81
2021/09/22 06:44:39;;;;;;;43.63;7.70;;;;;;;12.32;100.00;101854.34;5064187;28;20189;-79
2021/09/22 06:47:07;;;;;;;38.60;8.32;;;;;;;12.46;100.00;101861.63;5082212;28;20728;-80
2021/09/22 06:49:34;;;;;;;37.72;8.20;;;;;;;12.42;100.00;101866.19;5079671;27;20047;-79
2021/09/22 06:52:01;;;;;;;33.70;8.90;;;;;;;12.44;100.00;101871.41;5104658;27;20047;-80
2021/09/22 06:54:29;;;;;;;37.97;9.25;;;;;;;12.37;100.00;101879.59;5096519;28;20048;-79
2021/09/22 06:56:56;;;;;;;38.00;7.38;;;;;;;12.65;100.00;101870.38;5062791;28;20105;-80
2021/09/22 06:59:23;;;;;;;39.22;8.05;;;;;;;12.74;100.00;101866.44;5066954;28;20440;-80
2021/09/22 07:01:51;;;;;;;33.10;8.75;;;;;;;12.70;100.00;101871.03;5052457;28;20075;-80
2021/09/22 07:04:18;;;;;;;43.05;9.43;;;;;;;12.70;100.00;101873.69;5047866;28;20068;-81
2021/09/22 07:06:46;;;;;;;31.58;7.25;;;;;;;12.57;100.00;101875.19;5083376;28;20421;-81
2021/09/22 07:09:13;;;;;;;29.67;7.53;;;;;;;12.58;100.00;101872.47;5080865;28;20105;-80
2021/09/22 07:11:41;;;;;;;39.83;8.02;;;;;;;12.79;100.00;101875.88;5080518;28;20048;-80
2021/09/22 07:14:08;;;;;;;48.30;11.30;;;;;;;12.65;100.00;101871.25;5100793;27;20043;-79
2021/09/22 07:16:35;;;;;;;33.45;7.85;;;;;;;12.70;100.00;101873.69;5070165;28;20087;-80
2021/09/22 07:19:03;;;;;;;31.20;7.80;;;;;;;12.81;100.00;101868.72;5070012;28;20235;-80
2021/09/22 07:21:30;;;;;;;25.92;6.63;;;;;;;12.84;100.00;101871.22;5066752;28;20168;-78
2021/09/22 07:23:57;;;;;;;37.47;6.57;;;;;;;12.96;100.00;101882.97;5066789;28;20051;-80
2021/09/22 07:26:24;;;;;;;33.15;7.40;;;;;;;12.91;100.00;101887.63;5074763;28;20048;-79
2021/09/22 07:28:52;;;;;;;34.78;7.07;;;;;;;13.13;100.00;101884.78;5084754;28;20051;-78
2021/09/22 07:31:19;;;;;;;44.88;8.35;;;;;;;13.39;100.00;101886.19;5093587;28;20077;-79
2021/09/22 07:33:46;;;;;;;29.92;6.80;;;;;;;13.29;100.00;101898.16;5084657;28;20158;-79
2021/09/22 07:36:13;;;;;;;31.77;7.82;;;;;;;13.31;100.00;101893.63;5081563;28;20146;-80
2021/09/22 07:38:53;;;;;;;34.17;6.72;;;;;;;13.31;100.00;101896.28;5094236;28;20087;-83
2021/09/22 07:41:21;;;;;;;44.55;8.75;;;;;;;13.09;100.00;101899.94;5086838;28;20534;-81
2021/09/22 07:43:49;;;;;;;39.33;7.38;;;;;;;13.26;100.00;101901.78;5103596;28;20082;-80
2021/09/22 07:46:18;;;;;;;31.05;6.85;;;;;;;13.40;100.00;101901.09;5051286;28;20062;-81
2021/09/22 07:48:48;;;;;;;34.15;7.60;;;;;;;13.55;100.00;101902.09;5085978;28;20065;-82
2021/09/22 07:51:16;;;;;;;39.92;6.78;;;;;;;13.45;100.00;101899.09;5088517;28;20173;-86
2021/09/22 07:53:46;;;;;;;39.90;7.10;;;;;;;13.57;100.00;101901.09;5105095;28;20089;-80
2021/09/22 07:56:18;;;;;;;33.47;7.00;;;;;;;13.82;100.00;101905.13;5104838;28;20054;-83
2021/09/22 07:58:46;;;;;;;34.20;6.50;;;;;;;13.49;100.00;101902.44;5099343;28;20106;-82
2021/09/22 08:01:17;;;;;;;37.78;7.93;;;;;;;13.61;100.00;101896.53;5056340;28;20155;-83
2021/09/22 08:03:47;;;;;;;34.20;6.55;;;;;;;13.87;100.00;101903.13;5085521;28;20063;-80
2021/09/22 08:06:17;;;;;;;29.05;6.53;;;;;;;13.92;100.00;101903.72;5087270;28;20071;-82
2021/09/22 08:08:45;;;;;;;38.03;7.65;;;;;;;13.47;100.00;101905.16;5083685;28;20109;-83
2021/09/22 08:11:12;;;;;;;32.38;7.03;;;;;;;13.65;100.00;101913.97;5080820;28;20039;-80
2021/09/22 08:13:39;;;;;;;31.92;7.30;;;;;;;13.76;100.00;101916.88;5102851;28;20048;-81
2021/09/22 08:16:07;;;;;;;39.42;7.60;;;;;;;13.66;100.00;101923.59;5092028;27;20079;-81
2021/09/22 08:18:34;;;;;;;46.22;7.45;;;;;;;13.20;100.00;101915.31;5052408;28;20048;-81
2021/09/22 08:21:01;;;;;;;41.97;7.75;;;;;;;13.39;100.00;101918.78;5068575;28;20160;-81
2021/09/22 08:23:30;;;;;;;31.35;7.30;;;;;;;13.33;100.00;101924.38;5107773;28;20067;-81
2021/09/22 08:25:58;;;;;;;31.42;8.23;;;;;;;13.35;100.00;101927.78;5084671;28;20083;-81
2021/09/22 08:28:26;;;;;;;35.85;8.05;;;;;;;13.55;100.00;101932.06;5107254;27;20147;-82
2021/09/22 08:30:53;;;;;;;37.28;7.15;;;;;;;13.63;100.00;101927.25;5073343;27;20059;-83
2021/09/22 08:33:20;;;;;;;34.35;7.47;;;;;;;13.72;100.00;101930.34;5056050;28;20182;-81
2021/09/22 08:35:47;;;;;;;31.02;6.40;;;;;;;13.80;100.00;101934.31;5065903;28;20147;-82
2021/09/22 08:38:14;;;;;;;32.20;7.28;;;;;;;13.82;100.00;101929.78;5108032;27;20116;-82
2021/09/22 08:40:42;;;;;;;31.98;6.63;;;;;;;13.95;100.00;101927.38;5084843;27;20091;-82
2021/09/22 08:43:11;;;;;;;27.25;6.75;;;;;;;13.80;100.00;101929.03;5072805;28;20043;-81
2021/09/22 08:45:38;;;;;;;32.05;6.32;;;;;;;13.98;100.00;101926.38;5065169;28;20072;-82
2021/09/22 08:48:06;;;;;;;37.42;7.35;;;;;;;13.84;100.00;101933.25;5072899;28;20063;-81
2021/09/22 08:50:33;;;;;;;34.15;7.45;;;;;;;13.92;100.00;101923.13;5087132;28;20082;-82
2021/09/22 08:53:06;;;;;;;40.17;7.32;;;;;;;13.91;100.00;101921.41;5066649;28;20150;-81
2021/09/22 08:55:33;;;;;;;38.95;7.75;;;;;;;14.14;100.00;101917.53;5076109;28;20093;-82
2021/09/22 08:58:01;;;;;;;30.38;6.57;;;;;;;13.98;100.00;101918.44;5102573;28;20121;-83
2021/09/22 09:00:28;;;;;;;29.10;5.75;;;;;;;14.32;99.58;101913.06;5061802;28;20059;-82
2021/09/22 09:02:55;;;;;;;38.70;8.18;;;;;;;14.09;100.00;101919.56;5107637;28;20058;-81
2021/09/22 09:05:23;;;;;;;32.17;6.78;;;;;;;14.76;97.89;101911.56;5097633;27;20446;-80
2021/09/22 09:07:59;;;;;;;32.05;5.95;;;;;;;14.98;94.80;101924.47;5071339;28;20150;-81
2021/09/22 09:10:29;;;;;;;27.83;6.35;;;;;;;14.84;95.80;101918.16;5081013;28;20105;-81
2021/09/22 09:13:02;;;;;;;29.60;6.15;;;;;;;15.04;95.11;101918.81;5070181;28;20590;-81
2021/09/22 09:15:35;;;;;;;33.33;6.22;;;;;;;15.22;93.13;101927.50;5078499;28;20132;-81
2021/09/22 09:18:13;;;;;;;32.42;6.15;;;;;;;15.05;93.15;101913.44;5088126;28;20055;-81
2021/09/22 09:20:40;;;;;;;27.08;6.50;;;;;;;15.10;93.07;101923.78;5104399;27;20428;-80
2021/09/22 09:23:10;;;;;;;29.25;6.32;;;;;;;15.24;92.39;101917.69;5084191;28;20038;-81
2021/09/22 09:25:42;;;;;;;27.67;6.63;;;;;;;15.13;93.16;101920.94;5082203;28;20063;-81
2021/09/22 09:28:27;;;;;;;31.90;6.15;;;;;;;15.47;90.85;101922.50;5107632;27;20069;-80
2021/09/22 09:31:00;;;;;;;31.42;6.68;;;;;;;15.70;89.98;101921.16;5107761;27;20134;-81
2021/09/22 09:33:40;;;;;;;27.02;6.35;;;;;;;15.94;87.99;101917.03;5102674;28;20051;-82
2021/09/22 09:36:24;;;;;;;26.95;6.25;;;;;;;15.82;88.02;101922.22;5068875;28;20063;-81
2021/09/22 09:39:04;;;;;;;30.42;5.57;;;;;;;15.99;87.87;101924.72;5067575;28;20044;-80
2021/09/22 09:41:38;;;;;;;29.88;6.18;;;;;;;16.07;87.16;101909.16;5086719;27;20590;-81
2021/09/22 09:44:17;;;;;;;26.30;6.10;;;;;;;15.07;92.14;101913.34;5084035;28;20398;-81
2021/09/22 09:46:45;;;;;;;30.60;7.00;;;;;;;15.57;91.49;101915.69;5081733;28;20043;-81
2021/09/22 09:49:14;;;;;;;26.63;6.47;;;;;;;15.79;90.81;101917.09;5100252;28;20075;-80
2021/09/22 09:51:58;;;;;;;36.00;7.18;;;;;;;15.61;90.08;101919.88;5074405;28;20514;-81
2021/09/22 09:54:28;;;;;;;25.08;6.25;;;;;;;16.03;88.67;101922.72;5065342;28;20047;-81
2021/09/22 09:56:57;;;;;;;28.70;5.18;;;;;;;15.35;89.37;101912.59;5089509;28;20096;-81
2021/09/22 09:59:25;;;;;;;26.75;6.78;;;;;;;15.76;88.17;101917.28;5084581;28;20686;-82
2021/09/22 10:01:55;;;;;;;30.67;6.70;;;;;;;16.07;88.32;101911.81;5068966;28;20043;-82
2021/09/22 10:04:24;;;;;;;32.30;5.85;;;;;;;16.19;86.55;101915.50;5069667;28;20484;-80
2021/09/22 10:06:53;;;;;;;30.63;6.32;;;;;;;16.28;84.06;101909.63;5069467;28;20138;-83
2021/09/22 10:09:21;;;;;;;24.85;5.68;;;;;;;16.29;86.18;101918.44;5081437;28;20566;-83
2021/09/22 10:11:48;;;;;;;32.22;6.55;;;;;;;16.32;86.13;101918.28;5066162;27;20034;-82
2021/09/22 10:14:17;;;;;;;27.20;7.03;;;;;;;16.66;82.72;101912.53;5102303;27;20100;-83
2021/09/22 10:16:51;;;;;;;32.28;6.30;;;;;;;17.11;81.13;101918.50;5099043;27;20075;-83
2021/09/22 10:19:20;;;;;;;29.25;5.57;;;;;;;17.24;80.22;101910.53;5084567;28;20051;-84
2021/09/22 10:21:47;;;;;;;26.25;5.45;;;;;;;17.32;79.63;101910.03;5085136;28;20154;-83
2021/09/22 10:24:14;;;;;;;22.90;5.43;;;;;;;16.99;79.74;101911.34;5087177;28;20597;-83
2021/09/22 10:26:43;;;;;;;24.20;6.20;;;;;;;16.95;80.16;101912.47;5076526;28;20059;-83
2021/09/22 10:29:25;;;;;;;27.73;5.82;;;;;;;17.31;78.31;101906.53;5101194;28;20074;-82
2021/09/22 10:31:58;;;;;;;24.70;5.03;;;;;;;17.76;74.61;101911.53;5061901;27;20077;-83
2021/09/22 10:34:28;;;;;;;23.98;5.35;;;;;;;17.82;74.96;101916.44;5095377;28;20035;-83
2021/09/22 10:36:58;;;;;;;27.77;5.55;;;;;;;17.92;74.01;101917.50;5093655;27;20080;-83
2021/09/22 10:39:34;;;;;;;32.42;6.65;;;;;;;18.13;72.90;101910.69;5065388;28;20052;-84
2021/09/22 10:42:21;;;;;;;27.88;5.72;;;;;;;17.83;73.78;101912.81;5086160;28;20071;-83
2021/09/22 10:44:49;;;;;;;22.75;4.80;;;;;;;17.46;73.97;101899.31;5099167;27;20055;-83
2021/09/22 10:47:32;;;;;;;28.33;5.90;;;;;;;17.17;74.16;101890.63;5080158;28;20067;-84
2021/09/22 10:49:59;;;;;;;27.58;5.30;;;;;;;17.07;76.94;101895.72;5102231;28;20074;-84
2021/09/22 10:52:37;;;;;;;28.45;6.20;;;;;;;17.84;74.22;101895.88;5097654;28;20043;-85
2021/09/22 10:55:11;;;;;;;25.65;5.90;;;;;;;18.13;71.62;101897.34;5066827;27;20047;-84
2021/09/22 10:57:39;;;;;;;21.73;5.07;;;;;;;17.60;70.55;101887.72;5088139;28;20040;-81
2021/09/22 11:00:16;;;;;;;24.83;5.85;;;;;;;17.61;71.25;101887.66;5084972;28;20459;-85
2021/09/22 11:02:53;;;;;;;23.92;4.70;;;;;;;17.81;70.43;101888.94;5079155;28;20050;-81
2021/09/22 11:05:27;;;;;;;24.77;5.78;;;;;;;17.37;71.16;101892.81;5078709;28;20517;-83
2021/09/22 11:08:07;;;;;;;27.98;5.65;;;;;;;17.31;70.71;101890.56;5103960;28;20093;-82
2021/09/22 11:10:53;;;;;;;27.75;5.30;;;;;;;17.80;70.02;101883.75;5072601;28;20181;-81
2021/09/22 11:13:23;;;;;;;24.58;5.45;;;;;;;17.63;68.82;101887.53;5074455;28;20058;-80
2021/09/22 11:15:51;;;;;;;23.65;5.28;;;;;;;17.76;68.11;101890.22;5081822;28;20532;-81